Terminal Aerodrome Forecast
Issued by NWS Sterling, VA

Current Version | Previous Version | Graphics & Text | Print | Product List | Glossary On
Versions: 1 2 3 4 5 6 7 8 9 10 11 12 13 14 15 16 17 18 19 20 21 22 23 24 25 26 27
000
FTUS41 KLWX 281500 AAB
TAFIAD
TAF AMD
KIAD 281501Z 2815/2918 30012G20KT P6SM SCT050
      TEMPO 2815/2816 5SM -SN BKN030
     FM282200 30004KT P6SM SCT100
     FM290000 VRB04KT P6SM SCT090
     FM290100 VRB04KT P6SM BKN090
     FM291500 17006KT P6SM BKN100=

USA.gov is the U.S. government's official web portal to all federal, state and local government web resources and services.